sensor_id;sensor_type;location;lat;lon;timestamp;P1;durP1;ratioP1;P2;durP2;ratioP2
32250;SDS011;41295;48.518;9.206;2022-09-09T00:00:00;9.43;;;1.55;;
32250;SDS011;41295;48.518;9.206;2022-09-09T00:02:05;5.40;;;1.33;;
32250;SDS011;41295;48.518;9.206;2022-09-09T00:04:19;13.80;;;1.42;;
32250;SDS011;41295;48.518;9.206;2022-09-09T00:06:30;5.05;;;1.20;;
32250;SDS011;41295;48.518;9.206;2022-09-09T00:08:38;3.63;;;1.23;;
32250;SDS011;41295;48.518;9.206;2022-09-09T00:10:58;6.30;;;1.30;;
32250;SDS011;41295;48.518;9.206;2022-09-09T00:13:13;7.30;;;1.00;;
32250;SDS011;41295;48.518;9.206;2022-09-09T00:15:22;6.22;;;1.20;;
32250;SDS011;41295;48.518;9.206;2022-09-09T00:17:31;5.68;;;1.27;;
32250;SDS011;41295;48.518;9.206;2022-09-09T00:21:47;6.85;;;1.27;;
32250;SDS011;41295;48.518;9.206;2022-09-09T00:24:08;11.80;;;1.38;;
32250;SDS011;41295;48.518;9.206;2022-09-09T00:26:22;5.35;;;1.13;;
32250;SDS011;41295;48.518;9.206;2022-09-09T00:28:36;5.40;;;1.40;;
32250;SDS011;41295;48.518;9.206;2022-09-09T00:30:43;3.58;;;0.93;;
32250;SDS011;41295;48.518;9.206;2022-09-09T00:32:50;10.57;;;1.55;;
32250;SDS011;41295;48.518;9.206;2022-09-09T00:35:00;3.63;;;1.20;;
32250;SDS011;41295;48.518;9.206;2022-09-09T00:37:08;6.25;;;1.30;;
32250;SDS011;41295;48.518;9.206;2022-09-09T00:39:15;5.18;;;1.40;;
32250;SDS011;41295;48.518;9.206;2022-09-09T00:41:29;3.10;;;1.35;;
32250;SDS011;41295;48.518;9.206;2022-09-09T00:43:46;4.10;;;1.55;;
32250;SDS011;41295;48.518;9.206;2022-09-09T00:46:03;4.97;;;1.23;;
32250;SDS011;41295;48.518;9.206;2022-09-09T00:48:26;7.97;;;1.55;;
32250;SDS011;41295;48.518;9.206;2022-09-09T00:50:39;8.82;;;2.20;;
32250;SDS011;41295;48.518;9.206;2022-09-09T00:52:52;8.80;;;1.33;;
32250;SDS011;41295;48.518;9.206;2022-09-09T00:55:03;9.27;;;1.80;;
32250;SDS011;41295;48.518;9.206;2022-09-09T00:59:25;6.13;;;1.55;;
32250;SDS011;41295;48.518;9.206;2022-09-09T01:01:37;6.18;;;1.42;;
32250;SDS011;41295;48.518;9.206;2022-09-09T01:03:42;5.22;;;1.08;;
32250;SDS011;41295;48.518;9.206;2022-09-09T01:05:51;3.28;;;1.13;;
32250;SDS011;41295;48.518;9.206;2022-09-09T01:08:01;5.20;;;1.30;;
32250;SDS011;41295;48.518;9.206;2022-09-09T01:10:10;4.45;;;1.40;;
32250;SDS011;41295;48.518;9.206;2022-09-09T01:12:28;2.85;;;1.17;;
32250;SDS011;41295;48.518;9.206;2022-09-09T01:14:40;3.15;;;1.15;;
32250;SDS011;41295;48.518;9.206;2022-09-09T01:16:47;5.00;;;1.40;;
32250;SDS011;41295;48.518;9.206;2022-09-09T01:18:51;2.75;;;1.20;;
32250;SDS011;41295;48.518;9.206;2022-09-09T01:20:59;4.00;;;1.27;;
32250;SDS011;41295;48.518;9.206;2022-09-09T01:23:15;2.20;;;1.10;;
32250;SDS011;41295;48.518;9.206;2022-09-09T01:25:29;4.55;;;1.33;;
32250;SDS011;41295;48.518;9.206;2022-09-09T01:27:56;7.60;;;1.60;;
32250;SDS011;41295;48.518;9.206;2022-09-09T01:30:01;9.15;;;1.70;;
32250;SDS011;41295;48.518;9.206;2022-09-09T01:34:42;6.50;;;1.10;;
32250;SDS011;41295;48.518;9.206;2022-09-09T01:36:46;3.15;;;1.13;;
32250;SDS011;41295;48.518;9.206;2022-09-09T01:38:54;6.32;;;1.25;;
32250;SDS011;41295;48.518;9.206;2022-09-09T01:40:57;5.40;;;1.40;;
32250;SDS011;41295;48.518;9.206;2022-09-09T01:43:01;5.32;;;1.40;;
32250;SDS011;41295;48.518;9.206;2022-09-09T01:45:05;2.72;;;1.15;;
32250;SDS011;41295;48.518;9.206;2022-09-09T01:47:09;3.20;;;1.30;;
32250;SDS011;41295;48.518;9.206;2022-09-09T01:49:12;4.45;;;1.23;;
32250;SDS011;41295;48.518;9.206;2022-09-09T01:51:14;5.45;;;1.42;;
32250;SDS011;41295;48.518;9.206;2022-09-09T01:53:17;4.60;;;1.27;;
32250;SDS011;41295;48.518;9.206;2022-09-09T01:55:23;1.73;;;1.15;;
32250;SDS011;41295;48.518;9.206;2022-09-09T01:57:33;4.78;;;1.40;;
32250;SDS011;41295;48.518;9.206;2022-09-09T01:59:47;4.07;;;1.20;;
32250;SDS011;41295;48.518;9.206;2022-09-09T02:01:59;5.18;;;1.10;;
32250;SDS011;41295;48.518;9.206;2022-09-09T02:04:13;8.75;;;1.60;;
32250;SDS011;41295;48.518;9.206;2022-09-09T02:06:27;4.28;;;1.42;;
32250;SDS011;41295;48.518;9.206;2022-09-09T02:08:36;6.15;;;1.08;;
32250;SDS011;41295;48.518;9.206;2022-09-09T02:10:45;2.80;;;1.08;;
32250;SDS011;41295;48.518;9.206;2022-09-09T02:12:53;4.15;;;1.20;;
32250;SDS011;41295;48.518;9.206;2022-09-09T02:15:02;10.15;;;1.80;;
32250;SDS011;41295;48.518;9.206;2022-09-09T02:17:10;5.72;;;1.25;;
32250;SDS011;41295;48.518;9.206;2022-09-09T02:19:16;8.07;;;1.55;;
32250;SDS011;41295;48.518;9.206;2022-09-09T02:21:27;2.92;;;1.40;;
32250;SDS011;41295;48.518;9.206;2022-09-09T02:23:32;4.57;;;1.15;;
32250;SDS011;41295;48.518;9.206;2022-09-09T02:25:37;5.13;;;1.23;;
32250;SDS011;41295;48.518;9.206;2022-09-09T02:27:43;3.08;;;1.33;;
32250;SDS011;41295;48.518;9.206;2022-09-09T02:29:49;6.97;;;1.30;;
32250;SDS011;41295;48.518;9.206;2022-09-09T02:31:55;4.72;;;1.73;;
32250;SDS011;41295;48.518;9.206;2022-09-09T02:34:04;6.45;;;1.67;;
32250;SDS011;41295;48.518;9.206;2022-09-09T02:36:12;9.43;;;1.40;;
32250;SDS011;41295;48.518;9.206;2022-09-09T02:38:17;6.45;;;1.52;;
32250;SDS011;41295;48.518;9.206;2022-09-09T02:40:23;4.13;;;1.65;;
32250;SDS011;41295;48.518;9.206;2022-09-09T02:42:26;3.83;;;1.58;;
32250;SDS011;41295;48.518;9.206;2022-09-09T02:44:28;11.18;;;1.80;;
32250;SDS011;41295;48.518;9.206;2022-09-09T02:46:35;8.25;;;2.22;;
32250;SDS011;41295;48.518;9.206;2022-09-09T02:48:47;8.32;;;2.53;;
32250;SDS011;41295;48.518;9.206;2022-09-09T02:50:58;7.00;;;2.90;;
32250;SDS011;41295;48.518;9.206;2022-09-09T02:53:07;11.88;;;3.85;;
32250;SDS011;41295;48.518;9.206;2022-09-09T02:55:16;9.85;;;3.58;;
32250;SDS011;41295;48.518;9.206;2022-09-09T02:57:25;18.70;;;5.40;;
32250;SDS011;41295;48.518;9.206;2022-09-09T02:59:31;16.80;;;5.93;;
32250;SDS011;41295;48.518;9.206;2022-09-09T03:01:34;18.55;;;5.95;;
32250;SDS011;41295;48.518;9.206;2022-09-09T03:03:37;21.60;;;6.95;;
32250;SDS011;41295;48.518;9.206;2022-09-09T03:05:42;22.83;;;7.80;;
32250;SDS011;41295;48.518;9.206;2022-09-09T03:07:45;19.40;;;6.50;;
32250;SDS011;41295;48.518;9.206;2022-09-09T03:09:48;22.98;;;7.07;;
32250;SDS011;41295;48.518;9.206;2022-09-09T03:11:51;19.67;;;6.43;;
32250;SDS011;41295;48.518;9.206;2022-09-09T03:13:54;20.60;;;6.38;;
32250;SDS011;41295;48.518;9.206;2022-09-09T03:15:58;18.13;;;6.65;;
32250;SDS011;41295;48.518;9.206;2022-09-09T03:18:01;21.40;;;7.13;;
32250;SDS011;41295;48.518;9.206;2022-09-09T03:20:04;18.13;;;6.15;;
32250;SDS011;41295;48.518;9.206;2022-09-09T03:22:09;18.40;;;4.95;;
32250;SDS011;41295;48.518;9.206;2022-09-09T03:24:12;11.55;;;3.65;;
32250;SDS011;41295;48.518;9.206;2022-09-09T03:26:15;10.68;;;3.70;;
32250;SDS011;41295;48.518;9.206;2022-09-09T03:28:17;14.68;;;5.15;;
32250;SDS011;41295;48.518;9.206;2022-09-09T03:30:21;14.05;;;5.05;;
32250;SDS011;41295;48.518;9.206;2022-09-09T03:32:24;11.65;;;3.83;;
32250;SDS011;41295;48.518;9.206;2022-09-09T03:34:28;10.65;;;3.97;;
32250;SDS011;41295;48.518;9.206;2022-09-09T03:36:30;8.88;;;3.70;;
32250;SDS011;41295;48.518;9.206;2022-09-09T03:38:34;15.07;;;5.47;;
32250;SDS011;41295;48.518;9.206;2022-09-09T03:40:37;15.82;;;7.22;;
32250;SDS011;41295;48.518;9.206;2022-09-09T03:42:40;19.70;;;8.23;;
32250;SDS011;41295;48.518;9.206;2022-09-09T03:44:42;26.65;;;11.23;;
32250;SDS011;41295;48.518;9.206;2022-09-09T03:46:50;30.42;;;11.18;;
32250;SDS011;41295;48.518;9.206;2022-09-09T03:48:53;31.52;;;12.60;;
32250;SDS011;41295;48.518;9.206;2022-09-09T03:50:56;23.83;;;11.45;;
32250;SDS011;41295;48.518;9.206;2022-09-09T03:53:02;20.77;;;8.68;;
32250;SDS011;41295;48.518;9.206;2022-09-09T03:55:06;15.05;;;6.93;;
32250;SDS011;41295;48.518;9.206;2022-09-09T03:57:09;8.27;;;3.45;;
32250;SDS011;41295;48.518;9.206;2022-09-09T03:59:13;5.20;;;2.33;;
32250;SDS011;41295;48.518;9.206;2022-09-09T04:01:15;9.07;;;1.80;;
32250;SDS011;41295;48.518;9.206;2022-09-09T04:03:19;5.25;;;1.63;;
32250;SDS011;41295;48.518;9.206;2022-09-09T04:05:27;5.55;;;1.50;;
32250;SDS011;41295;48.518;9.206;2022-09-09T04:07:30;5.28;;;1.40;;
32250;SDS011;41295;48.518;9.206;2022-09-09T04:09:33;4.22;;;1.20;;
32250;SDS011;41295;48.518;9.206;2022-09-09T04:11:38;6.18;;;1.35;;
32250;SDS011;41295;48.518;9.206;2022-09-09T04:13:40;5.63;;;1.50;;
32250;SDS011;41295;48.518;9.206;2022-09-09T04:15:43;14.05;;;1.90;;
32250;SDS011;41295;48.518;9.206;2022-09-09T04:17:46;7.13;;;1.50;;
32250;SDS011;41295;48.518;9.206;2022-09-09T04:19:49;3.92;;;1.50;;
32250;SDS011;41295;48.518;9.206;2022-09-09T04:21:51;6.50;;;1.50;;
32250;SDS011;41295;48.518;9.206;2022-09-09T04:23:54;5.65;;;1.67;;
32250;SDS011;41295;48.518;9.206;2022-09-09T04:25:57;8.32;;;1.30;;
32250;SDS011;41295;48.518;9.206;2022-09-09T04:28:02;3.72;;;1.50;;
32250;SDS011;41295;48.518;9.206;2022-09-09T04:30:05;6.82;;;2.17;;
32250;SDS011;41295;48.518;9.206;2022-09-09T04:32:08;5.80;;;1.80;;
32250;SDS011;41295;48.518;9.206;2022-09-09T04:34:11;5.35;;;1.90;;
32250;SDS011;41295;48.518;9.206;2022-09-09T04:36:13;8.32;;;1.50;;
32250;SDS011;41295;48.518;9.206;2022-09-09T04:38:16;4.20;;;1.88;;
32250;SDS011;41295;48.518;9.206;2022-09-09T04:40:19;12.13;;;2.05;;
32250;SDS011;41295;48.518;9.206;2022-09-09T04:42:23;7.32;;;1.50;;
32250;SDS011;41295;48.518;9.206;2022-09-09T04:44:27;5.07;;;1.50;;
32250;SDS011;41295;48.518;9.206;2022-09-09T04:46:31;13.32;;;2.30;;
32250;SDS011;41295;48.518;9.206;2022-09-09T04:48:35;5.18;;;1.40;;
32250;SDS011;41295;48.518;9.206;2022-09-09T04:50:38;8.77;;;1.63;;
32250;SDS011;41295;48.518;9.206;2022-09-09T04:52:41;4.90;;;1.70;;
32250;SDS011;41295;48.518;9.206;2022-09-09T04:54:44;5.88;;;1.58;;
32250;SDS011;41295;48.518;9.206;2022-09-09T04:56:47;4.20;;;1.60;;
32250;SDS011;41295;48.518;9.206;2022-09-09T04:58:49;4.93;;;1.30;;
32250;SDS011;41295;48.518;9.206;2022-09-09T05:00:53;8.15;;;1.42;;
32250;SDS011;41295;48.518;9.206;2022-09-09T05:02:56;6.25;;;1.27;;
32250;SDS011;41295;48.518;9.206;2022-09-09T05:04:58;4.07;;;1.50;;
32250;SDS011;41295;48.518;9.206;2022-09-09T05:07:01;6.13;;;1.25;;
32250;SDS011;41295;48.518;9.206;2022-09-09T05:09:03;13.25;;;2.05;;
32250;SDS011;41295;48.518;9.206;2022-09-09T05:11:12;8.63;;;3.67;;
32250;SDS011;41295;48.518;9.206;2022-09-09T05:13:16;4.43;;;1.60;;
32250;SDS011;41295;48.518;9.206;2022-09-09T05:15:19;6.55;;;1.80;;
32250;SDS011;41295;48.518;9.206;2022-09-09T05:17:23;6.70;;;1.50;;
32250;SDS011;41295;48.518;9.206;2022-09-09T05:19:26;3.65;;;1.23;;
32250;SDS011;41295;48.518;9.206;2022-09-09T05:21:28;7.60;;;1.58;;
32250;SDS011;41295;48.518;9.206;2022-09-09T05:23:32;5.90;;;1.33;;
32250;SDS011;41295;48.518;9.206;2022-09-09T05:25:35;5.03;;;1.30;;
32250;SDS011;41295;48.518;9.206;2022-09-09T05:27:37;4.22;;;1.50;;
32250;SDS011;41295;48.518;9.206;2022-09-09T05:29:40;6.97;;;1.13;;
32250;SDS011;41295;48.518;9.206;2022-09-09T05:31:45;7.18;;;1.30;;
32250;SDS011;41295;48.518;9.206;2022-09-09T05:33:50;5.13;;;1.70;;
32250;SDS011;41295;48.518;9.206;2022-09-09T05:35:56;12.55;;;1.58;;
32250;SDS011;41295;48.518;9.206;2022-09-09T05:38:00;3.88;;;1.13;;
32250;SDS011;41295;48.518;9.206;2022-09-09T05:40:03;3.83;;;1.25;;
32250;SDS011;41295;48.518;9.206;2022-09-09T05:42:06;3.88;;;1.38;;
32250;SDS011;41295;48.518;9.206;2022-09-09T05:44:08;6.53;;;1.40;;
32250;SDS011;41295;48.518;9.206;2022-09-09T05:46:12;5.57;;;1.25;;
32250;SDS011;41295;48.518;9.206;2022-09-09T05:48:16;5.90;;;1.50;;
32250;SDS011;41295;48.518;9.206;2022-09-09T05:50:19;4.35;;;1.30;;
32250;SDS011;41295;48.518;9.206;2022-09-09T05:52:22;4.38;;;1.77;;
32250;SDS011;41295;48.518;9.206;2022-09-09T05:54:26;4.35;;;1.60;;
32250;SDS011;41295;48.518;9.206;2022-09-09T05:56:29;3.05;;;1.60;;
32250;SDS011;41295;48.518;9.206;2022-09-09T05:58:34;5.43;;;1.88;;
32250;SDS011;41295;48.518;9.206;2022-09-09T06:00:37;4.97;;;1.40;;
32250;SDS011;41295;48.518;9.206;2022-09-09T06:02:39;3.50;;;1.75;;
32250;SDS011;41295;48.518;9.206;2022-09-09T06:04:42;4.70;;;1.58;;
32250;SDS011;41295;48.518;9.206;2022-09-09T06:06:46;7.28;;;1.92;;
32250;SDS011;41295;48.518;9.206;2022-09-09T06:08:50;6.15;;;1.70;;
32250;SDS011;41295;48.518;9.206;2022-09-09T06:11:00;7.22;;;1.98;;
32250;SDS011;41295;48.518;9.206;2022-09-09T06:13:04;6.97;;;1.83;;
32250;SDS011;41295;48.518;9.206;2022-09-09T06:15:07;6.28;;;2.40;;
32250;SDS011;41295;48.518;9.206;2022-09-09T06:17:12;5.50;;;1.80;;
32250;SDS011;41295;48.518;9.206;2022-09-09T06:19:15;8.18;;;1.55;;
32250;SDS011;41295;48.518;9.206;2022-09-09T06:21:18;5.47;;;1.60;;
32250;SDS011;41295;48.518;9.206;2022-09-09T06:23:23;5.28;;;1.50;;
32250;SDS011;41295;48.518;9.206;2022-09-09T06:25:26;4.10;;;1.60;;
32250;SDS011;41295;48.518;9.206;2022-09-09T06:27:29;5.22;;;1.80;;
32250;SDS011;41295;48.518;9.206;2022-09-09T06:29:32;6.32;;;1.85;;
32250;SDS011;41295;48.518;9.206;2022-09-09T06:31:35;6.13;;;1.88;;
32250;SDS011;41295;48.518;9.206;2022-09-09T06:33:39;8.40;;;2.00;;
32250;SDS011;41295;48.518;9.206;2022-09-09T06:35:45;6.85;;;2.03;;
32250;SDS011;41295;48.518;9.206;2022-09-09T06:37:54;5.57;;;2.17;;
32250;SDS011;41295;48.518;9.206;2022-09-09T06:39:58;4.93;;;1.70;;
32250;SDS011;41295;48.518;9.206;2022-09-09T06:42:03;8.10;;;1.77;;
32250;SDS011;41295;48.518;9.206;2022-09-09T06:44:06;7.68;;;1.58;;
32250;SDS011;41295;48.518;9.206;2022-09-09T06:46:10;8.60;;;1.88;;
32250;SDS011;41295;48.518;9.206;2022-09-09T06:48:14;9.48;;;1.88;;
32250;SDS011;41295;48.518;9.206;2022-09-09T06:50:16;4.53;;;1.55;;
32250;SDS011;41295;48.518;9.206;2022-09-09T06:52:19;5.78;;;1.40;;
32250;SDS011;41295;48.518;9.206;2022-09-09T06:54:22;6.32;;;1.52;;
32250;SDS011;41295;48.518;9.206;2022-09-09T06:56:26;12.00;;;2.17;;
32250;SDS011;41295;48.518;9.206;2022-09-09T06:58:30;7.18;;;1.90;;
32250;SDS011;41295;48.518;9.206;2022-09-09T07:00:33;6.35;;;1.58;;
32250;SDS011;41295;48.518;9.206;2022-09-09T07:02:39;7.80;;;1.88;;
32250;SDS011;41295;48.518;9.206;2022-09-09T07:04:42;8.02;;;1.40;;
32250;SDS011;41295;48.518;9.206;2022-09-09T07:06:45;4.95;;;1.63;;
32250;SDS011;41295;48.518;9.206;2022-09-09T07:08:49;7.55;;;1.92;;
32250;SDS011;41295;48.518;9.206;2022-09-09T07:11:01;5.60;;;1.38;;
32250;SDS011;41295;48.518;9.206;2022-09-09T07:13:13;4.22;;;1.55;;
32250;SDS011;41295;48.518;9.206;2022-09-09T07:15:16;4.50;;;1.38;;
32250;SDS011;41295;48.518;9.206;2022-09-09T07:17:19;6.22;;;1.63;;
32250;SDS011;41295;48.518;9.206;2022-09-09T07:19:22;2.45;;;1.20;;
32250;SDS011;41295;48.518;9.206;2022-09-09T07:21:25;7.35;;;1.80;;
32250;SDS011;41295;48.518;9.206;2022-09-09T07:23:28;4.20;;;1.48;;
32250;SDS011;41295;48.518;9.206;2022-09-09T07:25:36;7.70;;;2.00;;
32250;SDS011;41295;48.518;9.206;2022-09-09T07:27:39;4.97;;;1.75;;
32250;SDS011;41295;48.518;9.206;2022-09-09T07:29:43;4.85;;;1.77;;
32250;SDS011;41295;48.518;9.206;2022-09-09T07:31:46;3.85;;;1.52;;
32250;SDS011;41295;48.518;9.206;2022-09-09T07:33:49;10.95;;;2.10;;
32250;SDS011;41295;48.518;9.206;2022-09-09T07:35:52;7.57;;;1.92;;
32250;SDS011;41295;48.518;9.206;2022-09-09T07:37:55;5.00;;;1.52;;
32250;SDS011;41295;48.518;9.206;2022-09-09T07:40:03;5.20;;;1.60;;
32250;SDS011;41295;48.518;9.206;2022-09-09T07:42:06;5.47;;;1.60;;
32250;SDS011;41295;48.518;9.206;2022-09-09T07:44:13;5.07;;;1.58;;
32250;SDS011;41295;48.518;9.206;2022-09-09T07:46:22;8.93;;;1.63;;
32250;SDS011;41295;48.518;9.206;2022-09-09T07:48:26;7.05;;;1.90;;
32250;SDS011;41295;48.518;9.206;2022-09-09T07:50:28;11.00;;;1.77;;
32250;SDS011;41295;48.518;9.206;2022-09-09T07:52:33;6.40;;;1.98;;
32250;SDS011;41295;48.518;9.206;2022-09-09T07:54:36;7.38;;;1.55;;
32250;SDS011;41295;48.518;9.206;2022-09-09T07:56:39;8.02;;;1.70;;
32250;SDS011;41295;48.518;9.206;2022-09-09T07:58:42;5.30;;;1.70;;
32250;SDS011;41295;48.518;9.206;2022-09-09T08:00:47;8.07;;;1.60;;
32250;SDS011;41295;48.518;9.206;2022-09-09T08:02:51;4.20;;;1.30;;
32250;SDS011;41295;48.518;9.206;2022-09-09T08:04:55;4.85;;;1.60;;
32250;SDS011;41295;48.518;9.206;2022-09-09T08:06:59;7.88;;;1.70;;
32250;SDS011;41295;48.518;9.206;2022-09-09T08:09:04;6.18;;;2.00;;
32250;SDS011;41295;48.518;9.206;2022-09-09T08:11:08;7.15;;;1.60;;
32250;SDS011;41295;48.518;9.206;2022-09-09T08:13:12;11.00;;;1.70;;
32250;SDS011;41295;48.518;9.206;2022-09-09T08:15:18;4.68;;;1.23;;
32250;SDS011;41295;48.518;9.206;2022-09-09T08:17:21;6.82;;;1.50;;
32250;SDS011;41295;48.518;9.206;2022-09-09T08:19:25;4.50;;;1.20;;
32250;SDS011;41295;48.518;9.206;2022-09-09T08:21:30;3.30;;;1.50;;
32250;SDS011;41295;48.518;9.206;2022-09-09T08:23:34;4.18;;;1.38;;
32250;SDS011;41295;48.518;9.206;2022-09-09T08:25:37;8.38;;;1.30;;
32250;SDS011;41295;48.518;9.206;2022-09-09T08:27:39;10.00;;;1.98;;
32250;SDS011;41295;48.518;9.206;2022-09-09T08:29:42;8.45;;;1.70;;
32250;SDS011;41295;48.518;9.206;2022-09-09T08:31:46;5.65;;;1.42;;
32250;SDS011;41295;48.518;9.206;2022-09-09T08:33:50;8.27;;;1.60;;
32250;SDS011;41295;48.518;9.206;2022-09-09T08:35:55;9.15;;;1.30;;
32250;SDS011;41295;48.518;9.206;2022-09-09T08:37:57;6.55;;;1.48;;
32250;SDS011;41295;48.518;9.206;2022-09-09T08:40:00;5.90;;;1.30;;
32250;SDS011;41295;48.518;9.206;2022-09-09T08:44:37;7.25;;;1.48;;
32250;SDS011;41295;48.518;9.206;2022-09-09T08:46:51;4.20;;;1.20;;
32250;SDS011;41295;48.518;9.206;2022-09-09T08:49:00;5.40;;;1.30;;
32250;SDS011;41295;48.518;9.206;2022-09-09T08:51:08;5.10;;;1.20;;
32250;SDS011;41295;48.518;9.206;2022-09-09T08:53:11;6.47;;;1.13;;
32250;SDS011;41295;48.518;9.206;2022-09-09T08:55:23;7.60;;;2.17;;
32250;SDS011;41295;48.518;9.206;2022-09-09T08:57:29;5.22;;;1.10;;
32250;SDS011;41295;48.518;9.206;2022-09-09T08:59:33;6.82;;;1.25;;
32250;SDS011;41295;48.518;9.206;2022-09-09T09:01:41;6.68;;;1.15;;
32250;SDS011;41295;48.518;9.206;2022-09-09T09:03:53;7.70;;;1.67;;
32250;SDS011;41295;48.518;9.206;2022-09-09T09:06:04;3.05;;;0.85;;
32250;SDS011;41295;48.518;9.206;2022-09-09T09:08:19;3.92;;;0.98;;
32250;SDS011;41295;48.518;9.206;2022-09-09T09:10:34;5.10;;;1.20;;
32250;SDS011;41295;48.518;9.206;2022-09-09T09:12:45;7.90;;;1.25;;
32250;SDS011;41295;48.518;9.206;2022-09-09T09:14:50;6.32;;;1.35;;
32250;SDS011;41295;48.518;9.206;2022-09-09T09:16:54;9.65;;;1.27;;
32250;SDS011;41295;48.518;9.206;2022-09-09T09:19:00;6.88;;;1.00;;
32250;SDS011;41295;48.518;9.206;2022-09-09T09:21:04;5.80;;;1.17;;
32250;SDS011;41295;48.518;9.206;2022-09-09T09:23:17;9.23;;;1.30;;
32250;SDS011;41295;48.518;9.206;2022-09-09T09:25:26;4.72;;;0.90;;
32250;SDS011;41295;48.518;9.206;2022-09-09T09:27:34;3.10;;;0.98;;
32250;SDS011;41295;48.518;9.206;2022-09-09T09:29:42;7.82;;;1.00;;
32250;SDS011;41295;48.518;9.206;2022-09-09T09:32:07;4.30;;;1.25;;
32250;SDS011;41295;48.518;9.206;2022-09-09T09:34:14;6.03;;;0.95;;
32250;SDS011;41295;48.518;9.206;2022-09-09T09:36:20;6.10;;;1.05;;
32250;SDS011;41295;48.518;9.206;2022-09-09T09:38:28;6.85;;;1.00;;
32250;SDS011;41295;48.518;9.206;2022-09-09T09:40:52;4.30;;;1.02;;
32250;SDS011;41295;48.518;9.206;2022-09-09T09:42:59;6.35;;;1.10;;
32250;SDS011;41295;48.518;9.206;2022-09-09T09:45:13;6.55;;;1.20;;
32250;SDS011;41295;48.518;9.206;2022-09-09T09:47:21;5.43;;;1.27;;
32250;SDS011;41295;48.518;9.206;2022-09-09T09:49:28;5.50;;;1.10;;
32250;SDS011;41295;48.518;9.206;2022-09-09T09:51:35;7.95;;;1.02;;
32250;SDS011;41295;48.518;9.206;2022-09-09T09:53:37;7.07;;;1.45;;
32250;SDS011;41295;48.518;9.206;2022-09-09T09:55:46;11.23;;;1.30;;
32250;SDS011;41295;48.518;9.206;2022-09-09T09:57:52;5.47;;;1.00;;
32250;SDS011;41295;48.518;9.206;2022-09-09T10:00:03;6.78;;;1.20;;
32250;SDS011;41295;48.518;9.206;2022-09-09T10:02:15;5.03;;;1.33;;
32250;SDS011;41295;48.518;9.206;2022-09-09T10:04:21;5.70;;;1.17;;
32250;SDS011;41295;48.518;9.206;2022-09-09T10:06:31;4.18;;;1.00;;
32250;SDS011;41295;48.518;9.206;2022-09-09T10:08:44;6.63;;;1.17;;
32250;SDS011;41295;48.518;9.206;2022-09-09T10:13:18;5.85;;;1.10;;
32250;SDS011;41295;48.518;9.206;2022-09-09T10:15:32;3.65;;;0.85;;
32250;SDS011;41295;48.518;9.206;2022-09-09T10:17:45;3.63;;;1.10;;
32250;SDS011;41295;48.518;9.206;2022-09-09T10:20:00;6.43;;;1.05;;
32250;SDS011;41295;48.518;9.206;2022-09-09T10:22:23;5.93;;;1.20;;
32250;SDS011;41295;48.518;9.206;2022-09-09T10:24:36;8.38;;;1.10;;
32250;SDS011;41295;48.518;9.206;2022-09-09T10:26:53;5.47;;;1.05;;
32250;SDS011;41295;48.518;9.206;2022-09-09T10:29:08;5.13;;;1.08;;
32250;SDS011;41295;48.518;9.206;2022-09-09T10:31:23;5.37;;;0.97;;
32250;SDS011;41295;48.518;9.206;2022-09-09T10:33:35;7.27;;;1.83;;
32250;SDS011;41295;48.518;9.206;2022-09-09T10:35:46;4.82;;;0.95;;
32250;SDS011;41295;48.518;9.206;2022-09-09T10:40:23;4.15;;;1.08;;
32250;SDS011;41295;48.518;9.206;2022-09-09T10:42:33;7.18;;;1.10;;
32250;SDS011;41295;48.518;9.206;2022-09-09T10:44:39;1.60;;;0.60;;
32250;SDS011;41295;48.518;9.206;2022-09-09T10:46:54;3.55;;;0.90;;
32250;SDS011;41295;48.518;9.206;2022-09-09T10:49:12;2.75;;;0.82;;
32250;SDS011;41295;48.518;9.206;2022-09-09T10:51:28;4.60;;;1.08;;
32250;SDS011;41295;48.518;9.206;2022-09-09T10:53:42;3.05;;;0.65;;
32250;SDS011;41295;48.518;9.206;2022-09-09T10:55:57;4.10;;;0.93;;
32250;SDS011;41295;48.518;9.206;2022-09-09T10:58:09;3.75;;;0.85;;
32250;SDS011;41295;48.518;9.206;2022-09-09T11:00:17;6.15;;;1.05;;
32250;SDS011;41295;48.518;9.206;2022-09-09T11:02:22;6.80;;;1.20;;
32250;SDS011;41295;48.518;9.206;2022-09-09T11:04:30;5.03;;;1.38;;
32250;SDS011;41295;48.518;9.206;2022-09-09T11:06:41;11.65;;;3.22;;
32250;SDS011;41295;48.518;9.206;2022-09-09T11:08:49;8.48;;;4.47;;
32250;SDS011;41295;48.518;9.206;2022-09-09T11:11:00;3.88;;;1.05;;
32250;SDS011;41295;48.518;9.206;2022-09-09T11:13:07;5.78;;;1.30;;
32250;SDS011;41295;48.518;9.206;2022-09-09T11:15:17;6.35;;;0.95;;
32250;SDS011;41295;48.518;9.206;2022-09-09T11:17:26;4.68;;;1.00;;
32250;SDS011;41295;48.518;9.206;2022-09-09T11:19:36;6.25;;;1.90;;
32250;SDS011;41295;48.518;9.206;2022-09-09T11:21:42;5.90;;;0.98;;
32250;SDS011;41295;48.518;9.206;2022-09-09T11:23:49;3.83;;;1.20;;
32250;SDS011;41295;48.518;9.206;2022-09-09T11:25:56;2.92;;;0.90;;
32250;SDS011;41295;48.518;9.206;2022-09-09T11:28:15;2.67;;;0.80;;
32250;SDS011;41295;48.518;9.206;2022-09-09T11:30:29;4.82;;;0.95;;
32250;SDS011;41295;48.518;9.206;2022-09-09T11:35:47;5.05;;;1.42;;
32250;SDS011;41295;48.518;9.206;2022-09-09T11:38:01;5.30;;;1.27;;
32250;SDS011;41295;48.518;9.206;2022-09-09T11:40:25;2.20;;;0.85;;
32250;SDS011;41295;48.518;9.206;2022-09-09T11:42:32;4.35;;;0.85;;
32250;SDS011;41295;48.518;9.206;2022-09-09T11:44:35;4.43;;;1.05;;
32250;SDS011;41295;48.518;9.206;2022-09-09T11:46:49;2.05;;;0.70;;
32250;SDS011;41295;48.518;9.206;2022-09-09T11:48:58;2.53;;;0.80;;
32250;SDS011;41295;48.518;9.206;2022-09-09T11:51:04;4.63;;;1.25;;
32250;SDS011;41295;48.518;9.206;2022-09-09T11:53:22;3.95;;;1.20;;
32250;SDS011;41295;48.518;9.206;2022-09-09T11:55:26;4.03;;;0.90;;
32250;SDS011;41295;48.518;9.206;2022-09-09T11:57:31;2.83;;;0.70;;
32250;SDS011;41295;48.518;9.206;2022-09-09T11:59:37;1.05;;;0.63;;
32250;SDS011;41295;48.518;9.206;2022-09-09T12:01:40;1.77;;;0.60;;
32250;SDS011;41295;48.518;9.206;2022-09-09T12:03:45;6.63;;;1.00;;
32250;SDS011;41295;48.518;9.206;2022-09-09T12:05:50;3.25;;;0.77;;
32250;SDS011;41295;48.518;9.206;2022-09-09T12:07:55;3.63;;;0.65;;
32250;SDS011;41295;48.518;9.206;2022-09-09T12:10:02;3.50;;;0.70;;
32250;SDS011;41295;48.518;9.206;2022-09-09T12:12:21;4.20;;;0.60;;
32250;SDS011;41295;48.518;9.206;2022-09-09T12:14:35;3.55;;;0.70;;
32250;SDS011;41295;48.518;9.206;2022-09-09T12:16:40;4.38;;;0.75;;
32250;SDS011;41295;48.518;9.206;2022-09-09T12:18:44;6.53;;;0.98;;
32250;SDS011;41295;48.518;9.206;2022-09-09T12:20:50;3.17;;;0.90;;
32250;SDS011;41295;48.518;9.206;2022-09-09T12:23:03;4.90;;;0.70;;
32250;SDS011;41295;48.518;9.206;2022-09-09T12:25:23;1.40;;;0.60;;
32250;SDS011;41295;48.518;9.206;2022-09-09T12:27:33;5.32;;;0.77;;
32250;SDS011;41295;48.518;9.206;2022-09-09T12:29:43;3.75;;;1.25;;
32250;SDS011;41295;48.518;9.206;2022-09-09T12:31:55;3.35;;;0.60;;
32250;SDS011;41295;48.518;9.206;2022-09-09T12:34:04;6.88;;;1.25;;
32250;SDS011;41295;48.518;9.206;2022-09-09T12:36:13;3.50;;;0.82;;
32250;SDS011;41295;48.518;9.206;2022-09-09T12:38:20;5.97;;;0.80;;
32250;SDS011;41295;48.518;9.206;2022-09-09T12:40:31;5.57;;;0.80;;
32250;SDS011;41295;48.518;9.206;2022-09-09T12:42:39;5.10;;;1.02;;
32250;SDS011;41295;48.518;9.206;2022-09-09T12:44:51;6.95;;;1.30;;
32250;SDS011;41295;48.518;9.206;2022-09-09T12:46:58;11.35;;;1.73;;
32250;SDS011;41295;48.518;9.206;2022-09-09T12:49:18;6.50;;;1.38;;
32250;SDS011;41295;48.518;9.206;2022-09-09T12:53:33;5.32;;;0.93;;
32250;SDS011;41295;48.518;9.206;2022-09-09T12:55:38;5.70;;;0.90;;
32250;SDS011;41295;48.518;9.206;2022-09-09T12:57:41;7.97;;;1.17;;
32250;SDS011;41295;48.518;9.206;2022-09-09T12:59:45;6.13;;;1.10;;
32250;SDS011;41295;48.518;9.206;2022-09-09T13:01:56;2.03;;;0.60;;